Syr-Dar'Ja, Uzbekistan
Current Conditions -  °F | °C
As of 1:00 PM on Tuesday 27 Jan 2015 (Local Time) from UTTT Reporting Station
Smoke Smoke  
Wind Chill: 30°   Ceiling: Unl
Heat Index: 30°   Visibility: 1.8mi
Dew Point: 16°   Wind: 2mph
Humidity: 55%   Direction: NA
Pressure: 30.42"   Gusts: NA
Location:  40.82°N, 68.68°E
Report Text: UTTT 270800Z VRB02KT 3000 FU NSC M01/M09 Q1030 R88/CLRD70NOSIG
Loading
Personal Weather Stations






























Interactive Weather Map New forecast layout! Learn more

10-Day Weather Forecast

Advertisements
Track Severe Weather on mobile